ADDS TAF Board (Experimental) INFO Settings

IDs: Format: Expanded Condensed

KMIA - Miami Intl, FL, US

Issued at 0251 UTC 03 Mar 2015
Updated at: 0308 UTC 03 Mar 2015
Time0253Z 03/04Z 03/05Z 03/06Z 03/07Z 03/08Z 03/09Z 03/10Z 03/11Z 03/12Z 03/13Z 03/14Z 03/15Z 03/16Z
Type OBS PRVL PRVL PRVL PRVL PRVL PRVL PRVL PRVL PRVL PRVL PRVL PRVL PRVL
VIS 10 >6 >6 >6 >6 >6 >6 >6 >6 >6 >6 >6 >6 >6
CIG -- -- -- -- -- -- -- -- -- -- -- -- -- --
Cover FEW FEW FEW FEW FEW FEW FEW FEW FEW FEW FEW FEW SCT SCT
FltCat VFR VFR VFR VFR VFR VFR VFR VFR VFR VFR VFR VFR VFR VFR
WX -- -- -- -- -- -- -- -- -- -- -- -- -- --
WDir 80 70 70 70 70 70 70 70 70 70 70 70 100 100
WSpd 6 7 7 7 7 7 7 7 7 7 7 7 15 15
WGst -- -- -- -- -- -- -- -- -- -- -- -- -- --
R08/26
XWnd 1 2 2 2 2 2 2 2 2 2 2 2 -3 -3
HWnd 6 7 7 7 7 7 7 7 7 7 7 7 15 15
R09/27
XWnd 1 2 2 2 2 2 2 2 2 2 2 2 -3 -3
HWnd 6 7 7 7 7 7 7 7 7 7 7 7 15 15
R12/30
XWnd 4 5 5 5 5 5 5 5 5 5 5 5 5 5
HWnd 5 5 5 5 5 5 5 5 5 5 5 5 14 14

NOTE: TEMPO conditions in [brackets]. Keep in mind TEMPO conditions might be better (lower impact) than prevailing conditions.

Raw TAF
KMIA 030251Z 0303/0324 07007KT P6SM FEW025
  FM031500 10015KT P6SM SCT025


Raw METAR
KMIA 030253Z 08006KT 10SM FEW025 23/18 A3022 RMK AO2 SLP235 T02330178 51008 $
KMIA 030153Z 06006KT 10SM FEW027 24/18 A3022 RMK AO2 SLP234 T02390178 $
KMIA 030053Z 05007KT 10SM SCT027 24/18 A3022 RMK AO2 SLP233 T02390178 $

METAR Board
Radar Display
Forecast Discussion

TAF Board Legend

Potential Impact
Threat None Slight Moderate High
Visibility (sm) ≥5.1 5.1>X≥3 3>X≥1 <1
Ceiling (100 ft) ≥30.1 30.1>X≥10 10>X≥5 <5
Wind Speed (kt) <10 10≤X<20 20≤X<30 ≥30
Wind Gust (kt) <15 15≤X<25 25≤X<35 ≥35
Weather No Wx Reported VCTS,-TS,-FZRA,SN TS,FZRA +TS,+FZRA,+SN